sensor_id;sensor_type;location;lat;lon;timestamp;pressure;altitude;pressure_sealevel;temperature;humidity
7760;BME280;3924;48.830;9.262;2022-10-22T00:00:01;98365.91;;;14.10;88.88
7760;BME280;3924;48.830;9.262;2022-10-22T00:02:28;98373.63;;;14.08;89.63
7760;BME280;3924;48.830;9.262;2022-10-22T00:04:54;98368.78;;;14.05;89.25
7760;BME280;3924;48.830;9.262;2022-10-22T00:07:22;98378.91;;;14.04;89.31
7760;BME280;3924;48.830;9.262;2022-10-22T00:09:49;98373.28;;;14.01;90.00
7760;BME280;3924;48.830;9.262;2022-10-22T00:12:16;98365.41;;;13.99;89.44
7760;BME280;3924;48.830;9.262;2022-10-22T00:14:42;98370.38;;;13.97;88.75
7760;BME280;3924;48.830;9.262;2022-10-22T00:17:09;98359.81;;;13.95;89.42
7760;BME280;3924;48.830;9.262;2022-10-22T00:19:37;98356.28;;;13.95;89.05
7760;BME280;3924;48.830;9.262;2022-10-22T00:22:04;98362.06;;;13.93;89.65
7760;BME280;3924;48.830;9.262;2022-10-22T00:24:32;98353.38;;;13.91;89.15
7760;BME280;3924;48.830;9.262;2022-10-22T00:26:59;98354.84;;;13.89;89.14
7760;BME280;3924;48.830;9.262;2022-10-22T00:29:25;98359.47;;;13.88;89.43
7760;BME280;3924;48.830;9.262;2022-10-22T00:31:51;98352.44;;;13.87;89.55
7760;BME280;3924;48.830;9.262;2022-10-22T00:34:19;98350.84;;;13.86;89.43
7760;BME280;3924;48.830;9.262;2022-10-22T00:36:49;98360.91;;;13.86;89.17
7760;BME280;3924;48.830;9.262;2022-10-22T00:39:17;98363.63;;;13.86;89.17
7760;BME280;3924;48.830;9.262;2022-10-22T00:41:46;98362.03;;;13.85;89.38
7760;BME280;3924;48.830;9.262;2022-10-22T00:47:17;98366.34;;;13.86;89.50
7760;BME280;3924;48.830;9.262;2022-10-22T00:49:45;98356.91;;;13.83;89.60
7760;BME280;3924;48.830;9.262;2022-10-22T00:52:13;98358.84;;;13.83;89.47
7760;BME280;3924;48.830;9.262;2022-10-22T00:54:40;98357.72;;;13.84;89.48
7760;BME280;3924;48.830;9.262;2022-10-22T00:57:07;98354.50;;;13.82;89.81
7760;BME280;3924;48.830;9.262;2022-10-22T00:59:35;98352.09;;;13.80;89.22
7760;BME280;3924;48.830;9.262;2022-10-22T01:02:03;98353.84;;;13.76;89.80
7760;BME280;3924;48.830;9.262;2022-10-22T01:04:29;98347.94;;;13.74;89.59
7760;BME280;3924;48.830;9.262;2022-10-22T01:06:56;98340.88;;;13.73;89.42
7760;BME280;3924;48.830;9.262;2022-10-22T01:09:51;98351.59;;;13.69;89.93
7760;BME280;3924;48.830;9.262;2022-10-22T01:12:59;98346.94;;;13.70;89.75
7760;BME280;3924;48.830;9.262;2022-10-22T01:15:54;98336.06;;;13.70;89.77
7760;BME280;3924;48.830;9.262;2022-10-22T01:21:16;98333.81;;;13.72;89.78
7760;BME280;3924;48.830;9.262;2022-10-22T01:29:47;98301.75;;;13.69;89.89
7760;BME280;3924;48.830;9.262;2022-10-22T01:32:19;98297.09;;;13.69;90.00
7760;BME280;3924;48.830;9.262;2022-10-22T01:34:50;98310.41;;;13.71;89.37
7760;BME280;3924;48.830;9.262;2022-10-22T01:37:20;98322.44;;;13.70;89.54
7760;BME280;3924;48.830;9.262;2022-10-22T01:39:48;98325.16;;;13.70;89.66
7760;BME280;3924;48.830;9.262;2022-10-22T01:42:15;98345.34;;;13.69;89.30
7760;BME280;3924;48.830;9.262;2022-10-22T01:44:42;98363.28;;;13.70;89.66
7760;BME280;3924;48.830;9.262;2022-10-22T01:55:15;98348.88;;;13.69;90.17
7760;BME280;3924;48.830;9.262;2022-10-22T01:57:53;98352.41;;;13.70;90.08
7760;BME280;3924;48.830;9.262;2022-10-22T02:00:25;98350.47;;;13.71;90.07
7760;BME280;3924;48.830;9.262;2022-10-22T02:02:59;98353.19;;;13.71;89.84
7760;BME280;3924;48.830;9.262;2022-10-22T02:05:32;98361.69;;;13.69;90.11
7760;BME280;3924;48.830;9.262;2022-10-22T02:08:11;98353.53;;;13.69;90.11
7760;BME280;3924;48.830;9.262;2022-10-22T02:10:42;98353.53;;;13.69;89.95
7760;BME280;3924;48.830;9.262;2022-10-22T02:13:17;98363.94;;;13.67;90.44
7760;BME280;3924;48.830;9.262;2022-10-22T02:15:48;98366.97;;;13.65;90.10
7760;BME280;3924;48.830;9.262;2022-10-22T02:18:18;98371.59;;;13.65;89.47
7760;BME280;3924;48.830;9.262;2022-10-22T02:20:47;98384.13;;;13.66;89.79
7760;BME280;3924;48.830;9.262;2022-10-22T02:23:14;98379.31;;;13.63;89.50
7760;BME280;3924;48.830;9.262;2022-10-22T02:25:45;98373.38;;;13.61;90.03
7760;BME280;3924;48.830;9.262;2022-10-22T02:28:28;98382.69;;;13.60;89.87
7760;BME280;3924;48.830;9.262;2022-10-22T02:31:12;98376.72;;;13.58;90.02
7760;BME280;3924;48.830;9.262;2022-10-22T02:33:44;98365.81;;;13.58;89.74
7760;BME280;3924;48.830;9.262;2022-10-22T02:36:14;98360.38;;;13.58;90.28
7760;BME280;3924;48.830;9.262;2022-10-22T02:38:41;98365.34;;;13.56;89.83
7760;BME280;3924;48.830;9.262;2022-10-22T02:41:08;98372.72;;;13.55;89.82
7760;BME280;3924;48.830;9.262;2022-10-22T02:43:40;98365.66;;;13.54;89.92
7760;BME280;3924;48.830;9.262;2022-10-22T02:46:08;98360.53;;;13.53;90.45
7760;BME280;3924;48.830;9.262;2022-10-22T02:48:35;98379.59;;;13.53;90.42
7760;BME280;3924;48.830;9.262;2022-10-22T02:51:02;98377.97;;;13.52;90.19
7760;BME280;3924;48.830;9.262;2022-10-22T02:53:29;98385.53;;;13.55;89.91
7760;BME280;3924;48.830;9.262;2022-10-22T02:55:55;98384.41;;;13.56;90.04
7760;BME280;3924;48.830;9.262;2022-10-22T02:58:21;98378.97;;;13.56;89.95
7760;BME280;3924;48.830;9.262;2022-10-22T03:00:48;98381.38;;;13.57;90.33
7760;BME280;3924;48.830;9.262;2022-10-22T03:03:14;98383.78;;;13.59;89.96
7760;BME280;3924;48.830;9.262;2022-10-22T03:05:40;98369.84;;;13.60;90.32
7760;BME280;3924;48.830;9.262;2022-10-22T03:08:07;98365.22;;;13.61;90.33
7760;BME280;3924;48.830;9.262;2022-10-22T03:10:34;98359.75;;;13.61;90.00
7760;BME280;3924;48.830;9.262;2022-10-22T03:13:00;98362.16;;;13.62;90.61
7760;BME280;3924;48.830;9.262;2022-10-22T03:15:26;98348.88;;;13.61;90.06
7760;BME280;3924;48.830;9.262;2022-10-22T03:17:58;98340.03;;;13.64;90.26
7760;BME280;3924;48.830;9.262;2022-10-22T03:20:24;98359.09;;;13.64;89.95
7760;BME280;3924;48.830;9.262;2022-10-22T03:22:51;98360.72;;;13.65;89.97
7760;BME280;3924;48.830;9.262;2022-10-22T03:25:20;98357.97;;;13.65;90.02
7760;BME280;3924;48.830;9.262;2022-10-22T03:27:49;98346.28;;;13.64;90.50
7760;BME280;3924;48.830;9.262;2022-10-22T03:30:17;98350.47;;;13.62;90.28
7760;BME280;3924;48.830;9.262;2022-10-22T03:32:44;98352.72;;;13.60;90.00
7760;BME280;3924;48.830;9.262;2022-10-22T03:35:10;98351.13;;;13.59;90.02
7760;BME280;3924;48.830;9.262;2022-10-22T03:37:37;98345.16;;;13.57;90.41
7760;BME280;3924;48.830;9.262;2022-10-22T03:40:05;98350.13;;;13.55;90.06
7760;BME280;3924;48.830;9.262;2022-10-22T03:42:32;98337.13;;;13.52;90.13
7760;BME280;3924;48.830;9.262;2022-10-22T03:44:59;98335.53;;;13.51;89.95
7760;BME280;3924;48.830;9.262;2022-10-22T03:47:25;98335.84;;;13.49;90.50
7760;BME280;3924;48.830;9.262;2022-10-22T03:49:52;98332.81;;;13.51;90.72
7760;BME280;3924;48.830;9.262;2022-10-22T03:52:19;98345.28;;;13.52;90.25
7760;BME280;3924;48.830;9.262;2022-10-22T03:54:45;98345.28;;;13.52;90.67
7760;BME280;3924;48.830;9.262;2022-10-22T03:57:12;98345.81;;;13.54;90.72
7760;BME280;3924;48.830;9.262;2022-10-22T03:59:43;98356.69;;;13.54;89.84
7760;BME280;3924;48.830;9.262;2022-10-22T04:02:11;98368.41;;;13.54;90.71
7760;BME280;3924;48.830;9.262;2022-10-22T04:04:38;98353.97;;;13.54;90.87
7760;BME280;3924;48.830;9.262;2022-10-22T04:07:06;98347.72;;;13.53;90.70
7760;BME280;3924;48.830;9.262;2022-10-22T04:09:33;98345.28;;;13.52;90.76
7760;BME280;3924;48.830;9.262;2022-10-22T04:12:00;98349.94;;;13.51;90.82
7760;BME280;3924;48.830;9.262;2022-10-22T04:14:26;98343.69;;;13.51;90.84
7760;BME280;3924;48.830;9.262;2022-10-22T04:16:53;98348.66;;;13.49;90.63
7760;BME280;3924;48.830;9.262;2022-10-22T04:19:19;98373.50;;;13.47;90.72
7760;BME280;3924;48.830;9.262;2022-10-22T04:21:45;98386.31;;;13.47;90.56
7760;BME280;3924;48.830;9.262;2022-10-22T04:24:12;98391.75;;;13.47;90.77
7760;BME280;3924;48.830;9.262;2022-10-22T04:26:39;98377.03;;;13.48;90.75
7760;BME280;3924;48.830;9.262;2022-10-22T04:29:06;98382.47;;;13.48;90.43
7760;BME280;3924;48.830;9.262;2022-10-22T04:31:38;98368.38;;;13.46;90.51
7760;BME280;3924;48.830;9.262;2022-10-22T04:34:05;98361.31;;;13.45;90.09
7760;BME280;3924;48.830;9.262;2022-10-22T04:36:31;98364.34;;;13.43;90.53
7760;BME280;3924;48.830;9.262;2022-10-22T04:38:59;98373.63;;;13.42;90.94
7760;BME280;3924;48.830;9.262;2022-10-22T04:41:28;98376.69;;;13.40;90.81
7760;BME280;3924;48.830;9.262;2022-10-22T04:43:56;98379.72;;;13.39;90.69
7760;BME280;3924;48.830;9.262;2022-10-22T04:46:24;98378.09;;;13.38;90.07
7760;BME280;3924;48.830;9.262;2022-10-22T04:48:51;98370.88;;;13.33;90.84
7760;BME280;3924;48.830;9.262;2022-10-22T04:51:20;98375.84;;;13.31;90.30
7760;BME280;3924;48.830;9.262;2022-10-22T04:53:47;98375.34;;;13.29;91.38
7760;BME280;3924;48.830;9.262;2022-10-22T04:56:17;98385.75;;;13.27;90.79
7760;BME280;3924;48.830;9.262;2022-10-22T04:58:47;98383.53;;;13.29;90.41
7760;BME280;3924;48.830;9.262;2022-10-22T05:01:26;98379.38;;;13.32;90.65
7760;BME280;3924;48.830;9.262;2022-10-22T05:03:54;98387.38;;;13.37;90.78
7760;BME280;3924;48.830;9.262;2022-10-22T05:06:22;98385.31;;;13.43;90.48
7760;BME280;3924;48.830;9.262;2022-10-22T05:08:54;98383.09;;;13.45;90.22
7760;BME280;3924;48.830;9.262;2022-10-22T05:11:26;98387.91;;;13.48;90.34
7760;BME280;3924;48.830;9.262;2022-10-22T05:13:55;98398.81;;;13.48;90.79
7760;BME280;3924;48.830;9.262;2022-10-22T05:16:22;98397.69;;;13.49;90.25
7760;BME280;3924;48.830;9.262;2022-10-22T05:18:49;98406.34;;;13.51;90.60
7760;BME280;3924;48.830;9.262;2022-10-22T05:21:18;98404.13;;;13.53;90.24
7760;BME280;3924;48.830;9.262;2022-10-22T05:23:46;98409.25;;;13.54;90.80
7760;BME280;3924;48.830;9.262;2022-10-22T05:26:19;98399.16;;;13.55;90.17
7760;BME280;3924;48.830;9.262;2022-10-22T05:28:47;98406.19;;;13.56;90.47
7760;BME280;3924;48.830;9.262;2022-10-22T05:31:14;98411.16;;;13.54;91.02
7760;BME280;3924;48.830;9.262;2022-10-22T05:33:41;98412.78;;;13.55;90.22
7760;BME280;3924;48.830;9.262;2022-10-22T05:36:12;98418.69;;;13.57;89.96
7760;BME280;3924;48.830;9.262;2022-10-22T05:38:38;98415.97;;;13.57;90.60
7760;BME280;3924;48.830;9.262;2022-10-22T05:41:11;98424.16;;;13.57;90.03
7760;BME280;3924;48.830;9.262;2022-10-22T05:43:37;98440.50;;;13.57;90.41
7760;BME280;3924;48.830;9.262;2022-10-22T05:46:07;98440.50;;;13.57;90.36
7760;BME280;3924;48.830;9.262;2022-10-22T05:48:34;98448.66;;;13.57;89.62
7760;BME280;3924;48.830;9.262;2022-10-22T05:51:06;98458.44;;;13.58;90.15
7760;BME280;3924;48.830;9.262;2022-10-22T05:53:34;98473.19;;;13.57;89.84
7760;BME280;3924;48.830;9.262;2022-10-22T05:56:09;98484.88;;;13.57;90.41
7760;BME280;3924;48.830;9.262;2022-10-22T05:58:36;98478.31;;;13.58;90.54
7760;BME280;3924;48.830;9.262;2022-10-22T06:01:22;98486.97;;;13.60;90.49
7760;BME280;3924;48.830;9.262;2022-10-22T06:03:52;98496.44;;;13.63;90.50
7760;BME280;3924;48.830;9.262;2022-10-22T06:06:28;98489.88;;;13.64;90.40
7760;BME280;3924;48.830;9.262;2022-10-22T06:08:59;98488.25;;;13.63;90.36
7760;BME280;3924;48.830;9.262;2022-10-22T06:11:26;98497.38;;;13.58;90.17
7760;BME280;3924;48.830;9.262;2022-10-22T06:13:57;98498.81;;;13.56;90.15
7760;BME280;3924;48.830;9.262;2022-10-22T06:16:24;98503.47;;;13.55;90.46
7760;BME280;3924;48.830;9.262;2022-10-22T06:18:50;98513.88;;;13.53;90.43
7760;BME280;3924;48.830;9.262;2022-10-22T06:21:17;98513.19;;;13.48;89.91
7760;BME280;3924;48.830;9.262;2022-10-22T06:23:43;98517.34;;;13.45;90.70
7760;BME280;3924;48.830;9.262;2022-10-22T06:26:10;98522.50;;;13.47;90.24
7760;BME280;3924;48.830;9.262;2022-10-22T06:28:37;98524.69;;;13.45;90.52
7760;BME280;3924;48.830;9.262;2022-10-22T06:31:04;98523.09;;;13.44;90.68
7760;BME280;3924;48.830;9.262;2022-10-22T06:33:32;98524.69;;;13.45;90.19
7760;BME280;3924;48.830;9.262;2022-10-22T06:36:07;98523.28;;;13.47;90.35
7760;BME280;3924;48.830;9.262;2022-10-22T06:38:34;98534.19;;;13.47;90.42
7760;BME280;3924;48.830;9.262;2022-10-22T06:41:18;98544.63;;;13.54;90.35
7760;BME280;3924;48.830;9.262;2022-10-22T06:43:46;98548.03;;;13.59;90.61
7760;BME280;3924;48.830;9.262;2022-10-22T06:46:15;98550.78;;;13.68;90.24
7760;BME280;3924;48.830;9.262;2022-10-22T06:48:54;98550.16;;;13.71;89.83
7760;BME280;3924;48.830;9.262;2022-10-22T06:51:21;98543.09;;;13.70;89.50
7760;BME280;3924;48.830;9.262;2022-10-22T06:53:48;98554.00;;;13.70;90.27
7760;BME280;3924;48.830;9.262;2022-10-22T06:56:17;98560.25;;;13.71;89.66
7760;BME280;3924;48.830;9.262;2022-10-22T06:58:48;98562.19;;;13.70;89.79
7760;BME280;3924;48.830;9.262;2022-10-22T07:01:16;98565.69;;;13.71;89.76
7760;BME280;3924;48.830;9.262;2022-10-22T07:03:44;98568.09;;;13.72;90.00
7760;BME280;3924;48.830;9.262;2022-10-22T07:06:12;98574.56;;;13.76;90.03
7760;BME280;3924;48.830;9.262;2022-10-22T07:08:40;98575.53;;;13.80;89.79
7760;BME280;3924;48.830;9.262;2022-10-22T07:11:18;98579.22;;;13.84;89.95
7760;BME280;3924;48.830;9.262;2022-10-22T07:13:46;98589.22;;;13.89;89.34
7760;BME280;3924;48.830;9.262;2022-10-22T07:16:13;98593.41;;;13.95;89.59
7760;BME280;3924;48.830;9.262;2022-10-22T07:18:42;98602.88;;;13.98;89.56
7760;BME280;3924;48.830;9.262;2022-10-22T07:21:10;98599.53;;;14.01;89.69
7760;BME280;3924;48.830;9.262;2022-10-22T07:23:38;98608.19;;;14.03;89.46
7760;BME280;3924;48.830;9.262;2022-10-22T07:26:06;98608.34;;;14.06;89.45
7760;BME280;3924;48.830;9.262;2022-10-22T07:28:35;98614.47;;;14.12;89.59
7760;BME280;3924;48.830;9.262;2022-10-22T07:31:03;98614.03;;;14.18;89.06
7760;BME280;3924;48.830;9.262;2022-10-22T07:33:29;98608.91;;;14.26;88.76
7760;BME280;3924;48.830;9.262;2022-10-22T07:36:01;98610.22;;;14.28;89.00
7760;BME280;3924;48.830;9.262;2022-10-22T07:38:28;98614.56;;;14.29;89.26
7760;BME280;3924;48.830;9.262;2022-10-22T07:40:54;98617.63;;;14.28;89.21
7760;BME280;3924;48.830;9.262;2022-10-22T07:43:21;98621.94;;;14.29;88.87
7760;BME280;3924;48.830;9.262;2022-10-22T07:45:48;98624.34;;;14.30;88.31
7760;BME280;3924;48.830;9.262;2022-10-22T07:48:15;98622.41;;;14.31;89.60
7760;BME280;3924;48.830;9.262;2022-10-22T07:50:42;98628.69;;;14.31;89.12
7760;BME280;3924;48.830;9.262;2022-10-22T07:53:09;98626.44;;;14.33;88.29
7760;BME280;3924;48.830;9.262;2022-10-22T07:55:35;98633.53;;;14.34;88.81
7760;BME280;3924;48.830;9.262;2022-10-22T07:58:03;98631.28;;;14.36;88.53
7760;BME280;3924;48.830;9.262;2022-10-22T08:00:29;98622.75;;;14.38;89.05
7760;BME280;3924;48.830;9.262;2022-10-22T08:02:55;98626.47;;;14.42;88.54
7760;BME280;3924;48.830;9.262;2022-10-22T08:05:22;98630.81;;;14.43;88.21
7760;BME280;3924;48.830;9.262;2022-10-22T08:07:48;98629.38;;;14.45;88.63
7760;BME280;3924;48.830;9.262;2022-10-22T08:10:15;98635.34;;;14.47;88.39
7760;BME280;3924;48.830;9.262;2022-10-22T08:12:41;98641.28;;;14.49;88.62
7760;BME280;3924;48.830;9.262;2022-10-22T08:15:21;98646.91;;;14.53;88.15
7760;BME280;3924;48.830;9.262;2022-10-22T08:17:58;98648.69;;;14.58;88.72
7760;BME280;3924;48.830;9.262;2022-10-22T08:20:47;98649.03;;;14.65;88.32
7760;BME280;3924;48.830;9.262;2022-10-22T08:23:54;98646.16;;;14.70;88.44
7760;BME280;3924;48.830;9.262;2022-10-22T08:27:04;98646.00;;;14.75;87.83
7760;BME280;3924;48.830;9.262;2022-10-22T08:37:07;98648.31;;;14.90;87.98
7760;BME280;3924;48.830;9.262;2022-10-22T08:43:38;98643.47;;;14.87;87.64
7760;BME280;3924;48.830;9.262;2022-10-22T08:50:04;98653.91;;;15.02;87.77
7760;BME280;3924;48.830;9.262;2022-10-22T08:59:58;98651.06;;;15.25;87.10
7760;BME280;3924;48.830;9.262;2022-10-22T09:06:20;98652.34;;;15.36;87.49
7760;BME280;3924;48.830;9.262;2022-10-22T09:09:19;98658.63;;;15.45;86.54
7760;BME280;3924;48.830;9.262;2022-10-22T09:12:15;98658.75;;;15.57;87.47
7760;BME280;3924;48.830;9.262;2022-10-22T09:14:45;98656.22;;;15.70;86.25
7760;BME280;3924;48.830;9.262;2022-10-22T09:17:33;98655.22;;;15.83;86.84
7760;BME280;3924;48.830;9.262;2022-10-22T09:20:15;98659.06;;;15.99;86.37
7760;BME280;3924;48.830;9.262;2022-10-22T09:22:51;98656.44;;;16.11;86.45
7760;BME280;3924;48.830;9.262;2022-10-22T09:25:26;98664.13;;;16.27;85.44
7760;BME280;3924;48.830;9.262;2022-10-22T09:27:53;98659.44;;;16.36;84.84
7760;BME280;3924;48.830;9.262;2022-10-22T09:30:27;98657.28;;;16.50;86.21
7760;BME280;3924;48.830;9.262;2022-10-22T09:35:45;98665.00;;;16.86;84.44
7760;BME280;3924;48.830;9.262;2022-10-22T09:38:14;98657.03;;;17.02;84.34
7760;BME280;3924;48.830;9.262;2022-10-22T09:40:52;98661.56;;;17.19;84.33
7760;BME280;3924;48.830;9.262;2022-10-22T09:43:19;98662.72;;;17.39;83.50
7760;BME280;3924;48.830;9.262;2022-10-22T09:45:46;98664.50;;;17.56;83.31
7760;BME280;3924;48.830;9.262;2022-10-22T09:50:42;98660.22;;;17.88;82.69
7760;BME280;3924;48.830;9.262;2022-10-22T09:53:25;98671.69;;;18.02;83.17
7760;BME280;3924;48.830;9.262;2022-10-22T09:55:55;98666.34;;;18.06;82.10
7760;BME280;3924;48.830;9.262;2022-10-22T09:58:39;98673.31;;;18.15;83.04
7760;BME280;3924;48.830;9.262;2022-10-22T10:01:19;98671.75;;;18.26;81.56
7760;BME280;3924;48.830;9.262;2022-10-22T10:04:27;98675.06;;;18.44;81.83
7760;BME280;3924;48.830;9.262;2022-10-22T10:25:17;98697.38;;;19.40;78.90
7760;BME280;3924;48.830;9.262;2022-10-22T10:38:47;98703.66;;;19.65;78.29
7760;BME280;3924;48.830;9.262;2022-10-22T10:48:35;98712.91;;;18.96;78.29
7760;BME280;3924;48.830;9.262;2022-10-22T11:02:37;98715.47;;;17.98;79.76
7760;BME280;3924;48.830;9.262;2022-10-22T11:04:54;98718.78;;;18.49;79.77
7760;BME280;3924;48.830;9.262;2022-10-22T11:08:35;98715.97;;;19.31;76.82
7760;BME280;3924;48.830;9.262;2022-10-22T11:12:50;98711.56;;;19.95;74.97
7760;BME280;3924;48.830;9.262;2022-10-22T11:18:19;98703.00;;;20.28;73.93
7760;BME280;3924;48.830;9.262;2022-10-22T11:27:43;98700.28;;;20.44;73.00
7760;BME280;3924;48.830;9.262;2022-10-22T11:34:04;98705.56;;;20.65;72.41
7760;BME280;3924;48.830;9.262;2022-10-22T11:36:59;98707.13;;;20.34;73.55
7760;BME280;3924;48.830;9.262;2022-10-22T11:42:43;98697.41;;;20.53;73.15
7760;BME280;3924;48.830;9.262;2022-10-22T11:48:13;98698.44;;;20.95;71.79
7760;BME280;3924;48.830;9.262;2022-10-22T11:53:45;98680.69;;;21.47;69.67
7760;BME280;3924;48.830;9.262;2022-10-22T11:57:20;98684.63;;;21.46;69.84
7760;BME280;3924;48.830;9.262;2022-10-22T12:03:04;98687.84;;;21.48;69.56
7760;BME280;3924;48.830;9.262;2022-10-22T12:05:42;98691.31;;;21.45;69.46
7760;BME280;3924;48.830;9.262;2022-10-22T12:10:53;98686.06;;;21.40;68.47
7760;BME280;3924;48.830;9.262;2022-10-22T12:13:24;98684.88;;;21.57;67.92
7760;BME280;3924;48.830;9.262;2022-10-22T12:15:53;98686.97;;;21.83;67.94
7760;BME280;3924;48.830;9.262;2022-10-22T12:18:24;98684.50;;;21.97;66.76
7760;BME280;3924;48.830;9.262;2022-10-22T12:20:54;98690.75;;;22.14;66.42
7760;BME280;3924;48.830;9.262;2022-10-22T12:23:27;98685.81;;;22.03;66.55
7760;BME280;3924;48.830;9.262;2022-10-22T12:25:54;98679.69;;;21.75;67.04
7760;BME280;3924;48.830;9.262;2022-10-22T12:28:21;98671.94;;;21.80;66.84
7760;BME280;3924;48.830;9.262;2022-10-22T12:30:47;98669.22;;;22.03;66.70
7760;BME280;3924;48.830;9.262;2022-10-22T12:33:21;98670.75;;;22.20;66.31
7760;BME280;3924;48.830;9.262;2022-10-22T12:35:49;98670.63;;;22.36;65.69
7760;BME280;3924;48.830;9.262;2022-10-22T12:38:21;98667.78;;;22.09;65.60
7760;BME280;3924;48.830;9.262;2022-10-22T12:40:49;98669.81;;;21.93;66.16
7760;BME280;3924;48.830;9.262;2022-10-22T12:43:19;98666.75;;;21.98;65.56
7760;BME280;3924;48.830;9.262;2022-10-22T12:45:49;98664.66;;;22.11;65.54
7760;BME280;3924;48.830;9.262;2022-10-22T12:48:19;98659.66;;;21.97;66.25
7760;BME280;3924;48.830;9.262;2022-10-22T12:50:50;98658.91;;;22.00;65.58
7760;BME280;3924;48.830;9.262;2022-10-22T12:56:11;98660.88;;;22.19;64.74
7760;BME280;3924;48.830;9.262;2022-10-22T12:58:41;98665.63;;;22.22;64.92
7760;BME280;3924;48.830;9.262;2022-10-22T13:01:10;98664.56;;;22.27;64.59
7760;BME280;3924;48.830;9.262;2022-10-22T13:03:48;98662.22;;;22.29;64.40
7760;BME280;3924;48.830;9.262;2022-10-22T13:08:56;98659.19;;;22.15;63.90
7760;BME280;3924;48.830;9.262;2022-10-22T13:14:33;98657.59;;;22.14;63.59
7760;BME280;3924;48.830;9.262;2022-10-22T13:22:29;98657.47;;;21.29;65.75
7760;BME280;3924;48.830;9.262;2022-10-22T13:24:58;98658.00;;;20.84;65.28
7760;BME280;3924;48.830;9.262;2022-10-22T13:27:29;98658.44;;;20.38;66.80
7760;BME280;3924;48.830;9.262;2022-10-22T13:29:58;98651.31;;;20.06;67.21
7760;BME280;3924;48.830;9.262;2022-10-22T13:32:27;98650.63;;;19.81;67.20
7760;BME280;3924;48.830;9.262;2022-10-22T13:34:57;98651.75;;;19.64;67.49
7760;BME280;3924;48.830;9.262;2022-10-22T13:37:25;98652.81;;;19.75;67.87
7760;BME280;3924;48.830;9.262;2022-10-22T13:39:53;98658.53;;;20.26;66.59
7760;BME280;3924;48.830;9.262;2022-10-22T13:42:19;98661.94;;;20.67;65.76
7760;BME280;3924;48.830;9.262;2022-10-22T13:44:45;98652.28;;;20.92;64.48
7760;BME280;3924;48.830;9.262;2022-10-22T13:47:23;98653.75;;;21.06;63.81
7760;BME280;3924;48.830;9.262;2022-10-22T13:49:51;98654.28;;;21.11;64.25
7760;BME280;3924;48.830;9.262;2022-10-22T13:52:42;98654.28;;;21.11;63.88
7760;BME280;3924;48.830;9.262;2022-10-22T13:57:41;98651.34;;;20.69;64.27
7760;BME280;3924;48.830;9.262;2022-10-22T14:00:11;98653.50;;;20.60;64.88
7760;BME280;3924;48.830;9.262;2022-10-22T14:02:38;98655.19;;;20.48;65.43
7760;BME280;3924;48.830;9.262;2022-10-22T14:05:06;98648.75;;;20.44;64.50
7760;BME280;3924;48.830;9.262;2022-10-22T14:07:35;98653.72;;;20.39;65.68
7760;BME280;3924;48.830;9.262;2022-10-22T14:10:12;98646.41;;;20.31;64.96
7760;BME280;3924;48.830;9.262;2022-10-22T14:12:38;98642.38;;;20.25;64.81
7760;BME280;3924;48.830;9.262;2022-10-22T14:15:05;98643.78;;;20.18;65.73
7760;BME280;3924;48.830;9.262;2022-10-22T14:17:32;98644.38;;;20.12;65.15
7760;BME280;3924;48.830;9.262;2022-10-22T14:19:58;98650.50;;;20.05;65.74
7760;BME280;3924;48.830;9.262;2022-10-22T14:22:27;98657.06;;;20.01;65.59
7760;BME280;3924;48.830;9.262;2022-10-22T14:24:53;98653.06;;;19.98;65.72
7760;BME280;3924;48.830;9.262;2022-10-22T14:27:20;98652.53;;;19.92;65.47
7760;BME280;3924;48.830;9.262;2022-10-22T14:29:46;98658.72;;;19.89;65.36
7760;BME280;3924;48.830;9.262;2022-10-22T14:32:15;98647.19;;;19.84;64.91
7760;BME280;3924;48.830;9.262;2022-10-22T14:34:44;98652.94;;;19.79;65.27
7760;BME280;3924;48.830;9.262;2022-10-22T14:37:17;98663.03;;;19.75;64.48
7760;BME280;3924;48.830;9.262;2022-10-22T14:39:45;98649.63;;;19.73;64.50
7760;BME280;3924;48.830;9.262;2022-10-22T14:42:12;98657.44;;;19.71;65.46
7760;BME280;3924;48.830;9.262;2022-10-22T14:44:39;98657.31;;;19.67;65.20
7760;BME280;3924;48.830;9.262;2022-10-22T14:47:06;98655.72;;;19.66;64.39
7760;BME280;3924;48.830;9.262;2022-10-22T14:49:32;98647.41;;;19.63;65.14
7760;BME280;3924;48.830;9.262;2022-10-22T14:51:59;98649.31;;;19.62;65.02
7760;BME280;3924;48.830;9.262;2022-10-22T14:54:25;98656.31;;;19.60;65.77
7760;BME280;3924;48.830;9.262;2022-10-22T14:56:52;98654.25;;;19.57;64.95
7760;BME280;3924;48.830;9.262;2022-10-22T14:59:18;98652.19;;;19.54;65.81
7760;BME280;3924;48.830;9.262;2022-10-22T15:01:44;98660.00;;;19.52;65.06
7760;BME280;3924;48.830;9.262;2022-10-22T15:04:11;98650.50;;;19.49;65.11
7760;BME280;3924;48.830;9.262;2022-10-22T15:06:38;98656.69;;;19.46;65.23
7760;BME280;3924;48.830;9.262;2022-10-22T15:09:04;98659.78;;;19.45;64.18
7760;BME280;3924;48.830;9.262;2022-10-22T15:11:30;98660.94;;;19.44;65.64
7760;BME280;3924;48.830;9.262;2022-10-22T15:13:57;98670.34;;;19.43;64.36
7760;BME280;3924;48.830;9.262;2022-10-22T15:16:23;98663.50;;;19.36;64.78
7760;BME280;3924;48.830;9.262;2022-10-22T15:18:50;98672.06;;;19.35;65.06
7760;BME280;3924;48.830;9.262;2022-10-22T15:21:20;98670.81;;;19.32;64.77
7760;BME280;3924;48.830;9.262;2022-10-22T15:23:47;98676.75;;;19.34;65.39
7760;BME280;3924;48.830;9.262;2022-10-22T15:26:13;98664.63;;;19.35;63.95
7760;BME280;3924;48.830;9.262;2022-10-22T15:28:40;98665.75;;;19.34;63.79
7760;BME280;3924;48.830;9.262;2022-10-22T15:31:11;98668.06;;;19.32;64.68
7760;BME280;3924;48.830;9.262;2022-10-22T15:33:40;98670.38;;;19.30;65.39
7760;BME280;3924;48.830;9.262;2022-10-22T15:36:14;98670.59;;;19.25;64.65
7760;BME280;3924;48.830;9.262;2022-10-22T15:38:41;98660.56;;;19.17;65.72
7760;BME280;3924;48.830;9.262;2022-10-22T15:41:08;98654.72;;;19.06;65.22
7760;BME280;3924;48.830;9.262;2022-10-22T15:43:37;98660.56;;;18.93;64.53
7760;BME280;3924;48.830;9.262;2022-10-22T15:46:17;98657.38;;;18.78;65.78
7760;BME280;3924;48.830;9.262;2022-10-22T15:48:44;98658.06;;;18.63;66.18
7760;BME280;3924;48.830;9.262;2022-10-22T15:51:14;98662.28;;;18.48;66.18
7760;BME280;3924;48.830;9.262;2022-10-22T15:53:41;98658.72;;;18.36;67.04
7760;BME280;3924;48.830;9.262;2022-10-22T15:56:08;98663.03;;;18.24;66.16
7760;BME280;3924;48.830;9.262;2022-10-22T15:58:34;98660.75;;;18.14;66.96
7760;BME280;3924;48.830;9.262;2022-10-22T16:01:06;98660.50;;;18.07;68.14
7760;BME280;3924;48.830;9.262;2022-10-22T16:03:33;98664.13;;;17.99;67.59
7760;BME280;3924;48.830;9.262;2022-10-22T16:06:00;98665.16;;;17.94;67.28